sensor_id;sensor_type;location;lat;lon;timestamp;P1;durP1;ratioP1;P2;durP2;ratioP2
24357;SDS011;13668;52.154;5.580;2023-08-06T00:00:41;5.15;;;3.65;;
24357;SDS011;13668;52.154;5.580;2023-08-06T00:03:06;3.90;;;3.05;;
24357;SDS011;13668;52.154;5.580;2023-08-06T00:05:32;6.75;;;3.55;;
24357;SDS011;13668;52.154;5.580;2023-08-06T00:07:58;4.50;;;3.20;;
24357;SDS011;13668;52.154;5.580;2023-08-06T00:10:24;4.85;;;3.30;;
24357;SDS011;13668;52.154;5.580;2023-08-06T00:12:50;5.93;;;4.13;;
24357;SDS011;13668;52.154;5.580;2023-08-06T00:15:16;5.00;;;3.72;;
24357;SDS011;13668;52.154;5.580;2023-08-06T00:17:43;5.60;;;3.35;;
24357;SDS011;13668;52.154;5.580;2023-08-06T00:20:09;6.05;;;3.72;;
24357;SDS011;13668;52.154;5.580;2023-08-06T00:22:35;4.95;;;3.70;;
24357;SDS011;13668;52.154;5.580;2023-08-06T00:25:02;5.30;;;4.45;;
24357;SDS011;13668;52.154;5.580;2023-08-06T00:27:28;5.82;;;4.22;;
24357;SDS011;13668;52.154;5.580;2023-08-06T00:29:55;6.72;;;4.57;;
24357;SDS011;13668;52.154;5.580;2023-08-06T00:32:21;5.25;;;3.83;;
24357;SDS011;13668;52.154;5.580;2023-08-06T00:34:48;7.75;;;5.20;;
24357;SDS011;13668;52.154;5.580;2023-08-06T00:37:17;7.13;;;4.63;;
24357;SDS011;13668;52.154;5.580;2023-08-06T00:39:43;8.15;;;5.32;;
24357;SDS011;13668;52.154;5.580;2023-08-06T00:42:09;7.45;;;4.70;;
24357;SDS011;13668;52.154;5.580;2023-08-06T00:44:35;6.50;;;4.53;;
24357;SDS011;13668;52.154;5.580;2023-08-06T00:47:01;6.38;;;4.72;;
24357;SDS011;13668;52.154;5.580;2023-08-06T00:49:27;7.88;;;5.35;;
24357;SDS011;13668;52.154;5.580;2023-08-06T00:51:53;8.75;;;6.00;;
24357;SDS011;13668;52.154;5.580;2023-08-06T00:54:20;7.55;;;6.00;;
24357;SDS011;13668;52.154;5.580;2023-08-06T00:56:46;9.15;;;5.72;;
24357;SDS011;13668;52.154;5.580;2023-08-06T00:59:12;6.72;;;5.07;;
24357;SDS011;13668;52.154;5.580;2023-08-06T01:01:39;9.10;;;6.07;;
24357;SDS011;13668;52.154;5.580;2023-08-06T01:04:05;9.48;;;5.72;;
24357;SDS011;13668;52.154;5.580;2023-08-06T01:08:58;12.43;;;5.97;;
24357;SDS011;13668;52.154;5.580;2023-08-06T01:11:29;8.93;;;5.70;;
24357;SDS011;13668;52.154;5.580;2023-08-06T01:14:04;8.38;;;6.10;;
24357;SDS011;13668;52.154;5.580;2023-08-06T01:16:32;8.90;;;6.70;;
24357;SDS011;13668;52.154;5.580;2023-08-06T01:18:58;9.90;;;6.57;;
24357;SDS011;13668;52.154;5.580;2023-08-06T01:21:24;7.63;;;4.82;;
24357;SDS011;13668;52.154;5.580;2023-08-06T01:23:51;11.13;;;6.00;;
24357;SDS011;13668;52.154;5.580;2023-08-06T01:28:55;10.90;;;6.20;;
24357;SDS011;13668;52.154;5.580;2023-08-06T01:31:22;8.45;;;5.43;;
24357;SDS011;13668;52.154;5.580;2023-08-06T01:33:50;10.52;;;5.88;;
24357;SDS011;13668;52.154;5.580;2023-08-06T01:36:16;7.88;;;5.70;;
24357;SDS011;13668;52.154;5.580;2023-08-06T01:38:43;6.60;;;4.60;;
24357;SDS011;13668;52.154;5.580;2023-08-06T01:41:09;8.13;;;5.60;;
24357;SDS011;13668;52.154;5.580;2023-08-06T01:43:35;7.85;;;5.85;;
24357;SDS011;13668;52.154;5.580;2023-08-06T01:46:01;9.45;;;5.93;;
24357;SDS011;13668;52.154;5.580;2023-08-06T01:48:27;8.90;;;5.55;;
24357;SDS011;13668;52.154;5.580;2023-08-06T01:50:53;7.72;;;5.32;;
24357;SDS011;13668;52.154;5.580;2023-08-06T01:53:19;7.93;;;5.65;;
24357;SDS011;13668;52.154;5.580;2023-08-06T01:55:48;8.65;;;5.75;;
24357;SDS011;13668;52.154;5.580;2023-08-06T01:58:14;6.88;;;5.72;;
24357;SDS011;13668;52.154;5.580;2023-08-06T02:00:40;8.23;;;5.70;;
24357;SDS011;13668;52.154;5.580;2023-08-06T02:03:06;8.88;;;5.68;;
24357;SDS011;13668;52.154;5.580;2023-08-06T02:05:32;6.72;;;5.28;;
24357;SDS011;13668;52.154;5.580;2023-08-06T02:07:58;9.18;;;5.53;;
24357;SDS011;13668;52.154;5.580;2023-08-06T02:10:24;7.60;;;4.82;;
24357;SDS011;13668;52.154;5.580;2023-08-06T02:12:50;6.18;;;4.93;;
24357;SDS011;13668;52.154;5.580;2023-08-06T02:15:16;11.07;;;6.78;;
24357;SDS011;13668;52.154;5.580;2023-08-06T02:17:42;8.73;;;5.60;;
24357;SDS011;13668;52.154;5.580;2023-08-06T02:20:08;7.40;;;5.65;;
24357;SDS011;13668;52.154;5.580;2023-08-06T02:22:34;9.80;;;6.05;;
24357;SDS011;13668;52.154;5.580;2023-08-06T02:25:00;6.93;;;5.40;;
24357;SDS011;13668;52.154;5.580;2023-08-06T02:27:26;8.43;;;5.63;;
24357;SDS011;13668;52.154;5.580;2023-08-06T02:29:52;8.50;;;5.38;;
24357;SDS011;13668;52.154;5.580;2023-08-06T02:32:18;8.07;;;6.03;;
24357;SDS011;13668;52.154;5.580;2023-08-06T02:34:44;9.65;;;6.22;;
24357;SDS011;13668;52.154;5.580;2023-08-06T02:37:10;9.38;;;5.80;;
24357;SDS011;13668;52.154;5.580;2023-08-06T02:39:36;7.20;;;5.13;;
24357;SDS011;13668;52.154;5.580;2023-08-06T02:42:04;9.55;;;6.47;;
24357;SDS011;13668;52.154;5.580;2023-08-06T02:44:30;9.25;;;5.85;;
24357;SDS011;13668;52.154;5.580;2023-08-06T02:46:57;8.98;;;5.68;;
24357;SDS011;13668;52.154;5.580;2023-08-06T02:49:23;6.65;;;5.38;;
24357;SDS011;13668;52.154;5.580;2023-08-06T02:51:48;9.93;;;5.55;;
24357;SDS011;13668;52.154;5.580;2023-08-06T02:54:14;9.02;;;5.35;;
24357;SDS011;13668;52.154;5.580;2023-08-06T02:56:42;7.03;;;5.20;;
24357;SDS011;13668;52.154;5.580;2023-08-06T02:59:09;7.60;;;5.32;;
24357;SDS011;13668;52.154;5.580;2023-08-06T03:01:35;8.95;;;6.07;;
24357;SDS011;13668;52.154;5.580;2023-08-06T03:04:02;7.07;;;5.03;;
24357;SDS011;13668;52.154;5.580;2023-08-06T03:06:28;8.05;;;5.65;;
24357;SDS011;13668;52.154;5.580;2023-08-06T03:08:53;9.27;;;6.05;;
24357;SDS011;13668;52.154;5.580;2023-08-06T03:11:19;9.25;;;5.60;;
24357;SDS011;13668;52.154;5.580;2023-08-06T03:13:46;10.07;;;5.47;;
24357;SDS011;13668;52.154;5.580;2023-08-06T03:16:12;7.78;;;5.97;;
24357;SDS011;13668;52.154;5.580;2023-08-06T03:18:38;7.28;;;5.45;;
24357;SDS011;13668;52.154;5.580;2023-08-06T03:21:04;6.63;;;5.22;;
24357;SDS011;13668;52.154;5.580;2023-08-06T03:23:30;10.90;;;5.80;;
24357;SDS011;13668;52.154;5.580;2023-08-06T03:26:00;7.97;;;5.15;;
24357;SDS011;13668;52.154;5.580;2023-08-06T03:28:26;9.43;;;6.43;;
24357;SDS011;13668;52.154;5.580;2023-08-06T03:31:02;8.18;;;6.28;;
24357;SDS011;13668;52.154;5.580;2023-08-06T03:33:28;9.73;;;6.35;;
24357;SDS011;13668;52.154;5.580;2023-08-06T03:35:54;9.30;;;5.70;;
24357;SDS011;13668;52.154;5.580;2023-08-06T03:38:20;8.75;;;5.88;;
24357;SDS011;13668;52.154;5.580;2023-08-06T03:40:47;10.00;;;6.50;;
24357;SDS011;13668;52.154;5.580;2023-08-06T03:43:13;10.05;;;5.90;;
24357;SDS011;13668;52.154;5.580;2023-08-06T03:45:40;10.38;;;7.15;;
24357;SDS011;13668;52.154;5.580;2023-08-06T03:48:06;10.90;;;6.53;;
24357;SDS011;13668;52.154;5.580;2023-08-06T03:50:32;14.73;;;8.00;;
24357;SDS011;13668;52.154;5.580;2023-08-06T03:52:58;11.70;;;7.40;;
24357;SDS011;13668;52.154;5.580;2023-08-06T03:55:23;9.70;;;6.72;;
24357;SDS011;13668;52.154;5.580;2023-08-06T03:57:49;10.82;;;6.82;;
24357;SDS011;13668;52.154;5.580;2023-08-06T04:00:15;9.80;;;6.95;;
24357;SDS011;13668;52.154;5.580;2023-08-06T04:02:42;12.68;;;7.28;;
24357;SDS011;13668;52.154;5.580;2023-08-06T04:05:08;11.13;;;6.55;;
24357;SDS011;13668;52.154;5.580;2023-08-06T04:07:34;10.13;;;6.57;;
24357;SDS011;13668;52.154;5.580;2023-08-06T04:10:03;11.05;;;6.70;;
24357;SDS011;13668;52.154;5.580;2023-08-06T04:12:29;11.57;;;7.22;;
24357;SDS011;13668;52.154;5.580;2023-08-06T04:14:56;10.85;;;7.00;;
24357;SDS011;13668;52.154;5.580;2023-08-06T04:17:23;10.82;;;7.13;;
24357;SDS011;13668;52.154;5.580;2023-08-06T04:19:50;11.35;;;6.75;;
24357;SDS011;13668;52.154;5.580;2023-08-06T04:22:16;11.25;;;7.88;;
24357;SDS011;13668;52.154;5.580;2023-08-06T04:24:42;12.57;;;8.07;;
24357;SDS011;13668;52.154;5.580;2023-08-06T04:27:08;14.88;;;7.95;;
24357;SDS011;13668;52.154;5.580;2023-08-06T04:29:34;13.85;;;8.60;;
24357;SDS011;13668;52.154;5.580;2023-08-06T04:32:00;11.95;;;7.85;;
24357;SDS011;13668;52.154;5.580;2023-08-06T04:34:26;11.77;;;8.10;;
24357;SDS011;13668;52.154;5.580;2023-08-06T04:36:52;11.27;;;7.45;;
24357;SDS011;13668;52.154;5.580;2023-08-06T04:39:18;12.40;;;8.07;;
24357;SDS011;13668;52.154;5.580;2023-08-06T04:41:45;13.98;;;7.70;;
24357;SDS011;13668;52.154;5.580;2023-08-06T04:44:11;12.07;;;7.55;;
24357;SDS011;13668;52.154;5.580;2023-08-06T04:46:37;12.35;;;7.70;;
24357;SDS011;13668;52.154;5.580;2023-08-06T04:49:03;15.10;;;7.88;;
24357;SDS011;13668;52.154;5.580;2023-08-06T04:51:29;10.60;;;7.10;;
24357;SDS011;13668;52.154;5.580;2023-08-06T04:53:56;11.32;;;7.05;;
24357;SDS011;13668;52.154;5.580;2023-08-06T04:56:22;12.25;;;7.80;;
24357;SDS011;13668;52.154;5.580;2023-08-06T04:58:48;10.65;;;6.80;;
24357;SDS011;13668;52.154;5.580;2023-08-06T05:01:14;12.85;;;7.80;;
24357;SDS011;13668;52.154;5.580;2023-08-06T05:03:40;12.70;;;7.63;;
24357;SDS011;13668;52.154;5.580;2023-08-06T05:06:06;12.05;;;7.90;;
24357;SDS011;13668;52.154;5.580;2023-08-06T05:08:32;11.65;;;7.25;;
24357;SDS011;13668;52.154;5.580;2023-08-06T05:10:58;11.98;;;7.57;;
24357;SDS011;13668;52.154;5.580;2023-08-06T05:13:24;12.38;;;8.05;;
24357;SDS011;13668;52.154;5.580;2023-08-06T05:15:50;12.02;;;7.65;;
24357;SDS011;13668;52.154;5.580;2023-08-06T05:18:16;12.90;;;7.25;;
24357;SDS011;13668;52.154;5.580;2023-08-06T05:20:42;13.02;;;7.13;;
24357;SDS011;13668;52.154;5.580;2023-08-06T05:23:08;11.73;;;7.05;;
24357;SDS011;13668;52.154;5.580;2023-08-06T05:25:35;10.80;;;7.07;;
24357;SDS011;13668;52.154;5.580;2023-08-06T05:28:01;10.00;;;7.18;;
24357;SDS011;13668;52.154;5.580;2023-08-06T05:30:27;10.98;;;7.43;;
24357;SDS011;13668;52.154;5.580;2023-08-06T05:32:53;11.27;;;7.88;;
24357;SDS011;13668;52.154;5.580;2023-08-06T05:35:20;10.57;;;6.60;;
24357;SDS011;13668;52.154;5.580;2023-08-06T05:37:46;12.50;;;7.22;;
24357;SDS011;13668;52.154;5.580;2023-08-06T05:40:12;12.05;;;7.60;;
24357;SDS011;13668;52.154;5.580;2023-08-06T05:42:38;10.95;;;6.60;;
24357;SDS011;13668;52.154;5.580;2023-08-06T05:45:05;10.50;;;7.05;;
24357;SDS011;13668;52.154;5.580;2023-08-06T05:47:31;11.93;;;7.82;;
24357;SDS011;13668;52.154;5.580;2023-08-06T05:49:57;10.77;;;7.85;;
24357;SDS011;13668;52.154;5.580;2023-08-06T05:52:23;9.85;;;6.65;;
24357;SDS011;13668;52.154;5.580;2023-08-06T05:54:49;10.77;;;6.55;;
24357;SDS011;13668;52.154;5.580;2023-08-06T05:57:15;12.63;;;7.18;;
24357;SDS011;13668;52.154;5.580;2023-08-06T05:59:41;12.20;;;6.95;;
24357;SDS011;13668;52.154;5.580;2023-08-06T06:02:06;10.10;;;7.03;;
24357;SDS011;13668;52.154;5.580;2023-08-06T06:04:33;9.43;;;6.82;;
24357;SDS011;13668;52.154;5.580;2023-08-06T06:06:59;11.20;;;6.35;;
24357;SDS011;13668;52.154;5.580;2023-08-06T06:09:25;9.55;;;6.35;;
24357;SDS011;13668;52.154;5.580;2023-08-06T06:11:51;10.73;;;6.82;;
24357;SDS011;13668;52.154;5.580;2023-08-06T06:14:17;10.95;;;6.63;;
24357;SDS011;13668;52.154;5.580;2023-08-06T06:16:43;11.52;;;7.07;;
24357;SDS011;13668;52.154;5.580;2023-08-06T06:19:09;8.43;;;5.65;;
24357;SDS011;13668;52.154;5.580;2023-08-06T06:21:35;11.52;;;6.55;;
24357;SDS011;13668;52.154;5.580;2023-08-06T06:24:02;7.80;;;5.65;;
24357;SDS011;13668;52.154;5.580;2023-08-06T06:26:28;10.20;;;5.97;;
24357;SDS011;13668;52.154;5.580;2023-08-06T06:28:54;8.45;;;6.20;;
24357;SDS011;13668;52.154;5.580;2023-08-06T06:31:20;7.70;;;5.57;;
24357;SDS011;13668;52.154;5.580;2023-08-06T06:33:46;7.72;;;5.68;;
24357;SDS011;13668;52.154;5.580;2023-08-06T06:36:12;9.13;;;6.30;;
24357;SDS011;13668;52.154;5.580;2023-08-06T06:38:38;6.13;;;4.68;;
24357;SDS011;13668;52.154;5.580;2023-08-06T06:41:04;6.47;;;4.63;;
24357;SDS011;13668;52.154;5.580;2023-08-06T06:43:30;7.15;;;4.72;;
24357;SDS011;13668;52.154;5.580;2023-08-06T06:45:56;6.90;;;5.32;;
24357;SDS011;13668;52.154;5.580;2023-08-06T06:48:23;7.47;;;4.93;;
24357;SDS011;13668;52.154;5.580;2023-08-06T06:50:49;6.60;;;5.03;;
24357;SDS011;13668;52.154;5.580;2023-08-06T06:53:15;5.75;;;4.07;;
24357;SDS011;13668;52.154;5.580;2023-08-06T06:55:41;8.70;;;5.50;;
24357;SDS011;13668;52.154;5.580;2023-08-06T06:58:07;5.38;;;4.13;;
24357;SDS011;13668;52.154;5.580;2023-08-06T07:00:35;5.47;;;3.80;;
24357;SDS011;13668;52.154;5.580;2023-08-06T07:03:01;5.28;;;4.13;;
24357;SDS011;13668;52.154;5.580;2023-08-06T07:05:27;7.30;;;5.40;;
24357;SDS011;13668;52.154;5.580;2023-08-06T07:07:53;6.45;;;4.30;;
24357;SDS011;13668;52.154;5.580;2023-08-06T07:10:19;6.18;;;4.75;;
24357;SDS011;13668;52.154;5.580;2023-08-06T07:12:45;7.80;;;5.25;;
24357;SDS011;13668;52.154;5.580;2023-08-06T07:15:11;7.50;;;5.20;;
24357;SDS011;13668;52.154;5.580;2023-08-06T07:17:37;7.43;;;5.82;;
24357;SDS011;13668;52.154;5.580;2023-08-06T07:20:03;7.13;;;4.95;;
24357;SDS011;13668;52.154;5.580;2023-08-06T07:22:29;6.05;;;4.72;;
24357;SDS011;13668;52.154;5.580;2023-08-06T07:24:55;8.52;;;6.47;;
24357;SDS011;13668;52.154;5.580;2023-08-06T07:27:21;7.35;;;4.97;;
24357;SDS011;13668;52.154;5.580;2023-08-06T07:29:47;8.23;;;5.20;;
24357;SDS011;13668;52.154;5.580;2023-08-06T07:32:13;8.93;;;6.53;;
24357;SDS011;13668;52.154;5.580;2023-08-06T07:34:39;7.93;;;6.18;;
24357;SDS011;13668;52.154;5.580;2023-08-06T07:37:05;9.15;;;5.82;;
24357;SDS011;13668;52.154;5.580;2023-08-06T07:39:31;9.23;;;6.32;;
24357;SDS011;13668;52.154;5.580;2023-08-06T07:41:57;7.28;;;4.82;;
24357;SDS011;13668;52.154;5.580;2023-08-06T07:44:23;7.93;;;5.40;;
24357;SDS011;13668;52.154;5.580;2023-08-06T07:46:49;9.52;;;6.40;;
24357;SDS011;13668;52.154;5.580;2023-08-06T07:49:15;8.20;;;6.30;;
24357;SDS011;13668;52.154;5.580;2023-08-06T07:51:41;6.65;;;5.38;;
24357;SDS011;13668;52.154;5.580;2023-08-06T07:54:08;8.82;;;5.15;;
24357;SDS011;13668;52.154;5.580;2023-08-06T07:56:34;7.43;;;5.40;;
24357;SDS011;13668;52.154;5.580;2023-08-06T07:59:01;10.00;;;5.93;;
24357;SDS011;13668;52.154;5.580;2023-08-06T08:01:27;9.27;;;6.40;;
24357;SDS011;13668;52.154;5.580;2023-08-06T08:03:53;10.52;;;6.25;;
24357;SDS011;13668;52.154;5.580;2023-08-06T08:06:19;8.38;;;5.78;;
24357;SDS011;13668;52.154;5.580;2023-08-06T08:08:45;11.18;;;6.97;;
24357;SDS011;13668;52.154;5.580;2023-08-06T08:11:11;10.10;;;6.55;;
24357;SDS011;13668;52.154;5.580;2023-08-06T08:13:37;13.65;;;7.63;;
24357;SDS011;13668;52.154;5.580;2023-08-06T08:16:03;11.00;;;7.40;;
24357;SDS011;13668;52.154;5.580;2023-08-06T08:18:29;9.60;;;7.15;;
24357;SDS011;13668;52.154;5.580;2023-08-06T08:20:56;10.65;;;7.88;;
24357;SDS011;13668;52.154;5.580;2023-08-06T08:23:22;12.40;;;8.18;;
24357;SDS011;13668;52.154;5.580;2023-08-06T08:25:48;8.30;;;6.80;;
24357;SDS011;13668;52.154;5.580;2023-08-06T08:28:14;8.48;;;6.47;;
24357;SDS011;13668;52.154;5.580;2023-08-06T08:30:41;10.00;;;7.20;;
24357;SDS011;13668;52.154;5.580;2023-08-06T08:33:07;10.07;;;7.72;;
24357;SDS011;13668;52.154;5.580;2023-08-06T08:35:33;9.75;;;7.07;;
24357;SDS011;13668;52.154;5.580;2023-08-06T08:37:59;9.77;;;7.60;;
24357;SDS011;13668;52.154;5.580;2023-08-06T08:40:29;9.52;;;6.97;;
24357;SDS011;13668;52.154;5.580;2023-08-06T08:42:57;9.13;;;7.30;;
24357;SDS011;13668;52.154;5.580;2023-08-06T08:45:23;11.20;;;7.22;;
24357;SDS011;13668;52.154;5.580;2023-08-06T08:47:51;12.40;;;7.95;;
24357;SDS011;13668;52.154;5.580;2023-08-06T08:50:17;10.35;;;7.53;;
24357;SDS011;13668;52.154;5.580;2023-08-06T08:52:44;10.23;;;7.70;;
24357;SDS011;13668;52.154;5.580;2023-08-06T08:55:11;11.57;;;7.75;;
24357;SDS011;13668;52.154;5.580;2023-08-06T08:57:37;12.25;;;7.90;;
24357;SDS011;13668;52.154;5.580;2023-08-06T09:00:03;12.10;;;8.05;;
24357;SDS011;13668;52.154;5.580;2023-08-06T09:02:29;11.50;;;7.80;;
24357;SDS011;13668;52.154;5.580;2023-08-06T09:04:57;11.93;;;8.35;;
24357;SDS011;13668;52.154;5.580;2023-08-06T09:07:26;12.63;;;8.02;;
24357;SDS011;13668;52.154;5.580;2023-08-06T09:09:53;15.57;;;9.77;;
24357;SDS011;13668;52.154;5.580;2023-08-06T09:12:19;14.60;;;9.35;;
24357;SDS011;13668;52.154;5.580;2023-08-06T09:14:45;13.90;;;9.07;;
24357;SDS011;13668;52.154;5.580;2023-08-06T09:17:11;13.68;;;9.25;;
24357;SDS011;13668;52.154;5.580;2023-08-06T09:19:37;12.57;;;8.40;;
24357;SDS011;13668;52.154;5.580;2023-08-06T09:22:04;12.70;;;9.85;;
24357;SDS011;13668;52.154;5.580;2023-08-06T09:24:37;16.15;;;9.02;;
24357;SDS011;13668;52.154;5.580;2023-08-06T09:27:04;13.02;;;8.65;;
24357;SDS011;13668;52.154;5.580;2023-08-06T09:29:30;8.98;;;6.05;;
24357;SDS011;13668;52.154;5.580;2023-08-06T09:31:57;3.40;;;2.53;;
24357;SDS011;13668;52.154;5.580;2023-08-06T09:34:23;1.30;;;1.20;;
24357;SDS011;13668;52.154;5.580;2023-08-06T09:36:53;3.08;;;0.90;;
24357;SDS011;13668;52.154;5.580;2023-08-06T09:39:20;0.85;;;0.75;;
24357;SDS011;13668;52.154;5.580;2023-08-06T09:41:46;1.10;;;0.50;;
24357;SDS011;13668;52.154;5.580;2023-08-06T09:46:48;0.32;;;0.32;;
24357;SDS011;13668;52.154;5.580;2023-08-06T09:49:14;1.38;;;0.55;;
24357;SDS011;13668;52.154;5.580;2023-08-06T09:51:43;2.13;;;0.70;;
24357;SDS011;13668;52.154;5.580;2023-08-06T09:54:11;0.47;;;0.47;;
24357;SDS011;13668;52.154;5.580;2023-08-06T09:56:38;1.10;;;0.40;;
24357;SDS011;13668;52.154;5.580;2023-08-06T09:59:04;0.65;;;0.65;;
24357;SDS011;13668;52.154;5.580;2023-08-06T10:01:32;1.30;;;0.90;;
24357;SDS011;13668;52.154;5.580;2023-08-06T10:03:58;1.70;;;1.10;;
24357;SDS011;13668;52.154;5.580;2023-08-06T10:06:25;1.25;;;1.13;;
24357;SDS011;13668;52.154;5.580;2023-08-06T10:08:52;1.77;;;1.42;;
24357;SDS011;13668;52.154;5.580;2023-08-06T10:11:18;2.03;;;1.33;;
24357;SDS011;13668;52.154;5.580;2023-08-06T10:13:45;1.48;;;1.25;;
24357;SDS011;13668;52.154;5.580;2023-08-06T10:16:11;2.78;;;1.90;;
24357;SDS011;13668;52.154;5.580;2023-08-06T10:18:38;1.58;;;1.25;;
24357;SDS011;13668;52.154;5.580;2023-08-06T10:21:06;2.63;;;1.42;;
24357;SDS011;13668;52.154;5.580;2023-08-06T10:23:33;2.00;;;1.50;;
24357;SDS011;13668;52.154;5.580;2023-08-06T10:26:00;2.55;;;1.80;;
24357;SDS011;13668;52.154;5.580;2023-08-06T10:28:39;1.33;;;1.23;;
24357;SDS011;13668;52.154;5.580;2023-08-06T10:31:05;1.58;;;1.48;;
24357;SDS011;13668;52.154;5.580;2023-08-06T10:33:41;2.22;;;1.60;;
24357;SDS011;13668;52.154;5.580;2023-08-06T10:36:08;1.83;;;1.65;;
24357;SDS011;13668;52.154;5.580;2023-08-06T10:38:34;1.77;;;1.50;;
24357;SDS011;13668;52.154;5.580;2023-08-06T10:41:03;1.42;;;1.33;;
24357;SDS011;13668;52.154;5.580;2023-08-06T10:45:55;2.83;;;2.08;;
24357;SDS011;13668;52.154;5.580;2023-08-06T10:48:34;2.35;;;2.15;;
24357;SDS011;13668;52.154;5.580;2023-08-06T10:51:07;3.45;;;1.98;;
24357;SDS011;13668;52.154;5.580;2023-08-06T10:53:33;2.90;;;2.63;;
24357;SDS011;13668;52.154;5.580;2023-08-06T10:55:59;2.35;;;2.03;;
24357;SDS011;13668;52.154;5.580;2023-08-06T10:58:25;4.43;;;2.67;;
24357;SDS011;13668;52.154;5.580;2023-08-06T11:00:51;3.25;;;2.38;;
24357;SDS011;13668;52.154;5.580;2023-08-06T11:03:17;2.70;;;2.35;;
24357;SDS011;13668;52.154;5.580;2023-08-06T11:05:49;4.03;;;2.67;;
24357;SDS011;13668;52.154;5.580;2023-08-06T11:08:25;3.90;;;1.83;;
24357;SDS011;13668;52.154;5.580;2023-08-06T11:10:51;3.17;;;2.40;;
24357;SDS011;13668;52.154;5.580;2023-08-06T11:13:17;2.65;;;1.90;;
24357;SDS011;13668;52.154;5.580;2023-08-06T11:15:44;3.30;;;2.15;;
24357;SDS011;13668;52.154;5.580;2023-08-06T11:18:11;2.30;;;2.10;;
24357;SDS011;13668;52.154;5.580;2023-08-06T11:20:37;3.40;;;2.17;;
24357;SDS011;13668;52.154;5.580;2023-08-06T11:23:03;2.85;;;2.42;;
24357;SDS011;13668;52.154;5.580;2023-08-06T11:25:29;2.53;;;1.67;;
24357;SDS011;13668;52.154;5.580;2023-08-06T11:27:55;3.00;;;2.30;;
24357;SDS011;13668;52.154;5.580;2023-08-06T11:30:21;3.50;;;2.58;;
24357;SDS011;13668;52.154;5.580;2023-08-06T11:32:48;2.63;;;2.42;;
24357;SDS011;13668;52.154;5.580;2023-08-06T11:35:17;6.07;;;2.67;;
24357;SDS011;13668;52.154;5.580;2023-08-06T11:37:44;4.13;;;2.58;;
24357;SDS011;13668;52.154;5.580;2023-08-06T11:40:10;3.33;;;2.55;;
24357;SDS011;13668;52.154;5.580;2023-08-06T11:42:37;3.95;;;2.40;;
24357;SDS011;13668;52.154;5.580;2023-08-06T11:45:03;3.50;;;2.40;;
24357;SDS011;13668;52.154;5.580;2023-08-06T11:47:29;4.63;;;2.50;;
24357;SDS011;13668;52.154;5.580;2023-08-06T11:49:56;3.80;;;2.53;;
24357;SDS011;13668;52.154;5.580;2023-08-06T11:52:25;4.28;;;2.28;;
24357;SDS011;13668;52.154;5.580;2023-08-06T11:55:05;3.28;;;2.58;;
24357;SDS011;13668;52.154;5.580;2023-08-06T11:57:33;3.17;;;2.47;;
24357;SDS011;13668;52.154;5.580;2023-08-06T12:02:33;4.13;;;2.70;;
24357;SDS011;13668;52.154;5.580;2023-08-06T12:07:32;2.17;;;1.48;;
24357;SDS011;13668;52.154;5.580;2023-08-06T12:09:59;2.78;;;1.83;;
24357;SDS011;13668;52.154;5.580;2023-08-06T12:12:25;3.08;;;1.48;;
24357;SDS011;13668;52.154;5.580;2023-08-06T12:14:51;2.80;;;1.92;;
24357;SDS011;13668;52.154;5.580;2023-08-06T12:17:17;1.73;;;1.08;;
24357;SDS011;13668;52.154;5.580;2023-08-06T12:19:44;3.50;;;1.48;;
24357;SDS011;13668;52.154;5.580;2023-08-06T12:22:11;5.28;;;1.70;;
24357;SDS011;13668;52.154;5.580;2023-08-06T12:24:38;1.48;;;1.38;;
24357;SDS011;13668;52.154;5.580;2023-08-06T12:27:04;2.75;;;1.40;;
24357;SDS011;13668;52.154;5.580;2023-08-06T12:29:30;3.05;;;1.73;;
24357;SDS011;13668;52.154;5.580;2023-08-06T12:31:56;1.38;;;1.10;;
24357;SDS011;13668;52.154;5.580;2023-08-06T12:34:22;3.72;;;1.60;;
24357;SDS011;13668;52.154;5.580;2023-08-06T12:36:48;2.17;;;1.67;;
24357;SDS011;13668;52.154;5.580;2023-08-06T12:39:14;1.88;;;1.55;;
24357;SDS011;13668;52.154;5.580;2023-08-06T12:41:40;2.85;;;1.80;;
24357;SDS011;13668;52.154;5.580;2023-08-06T12:44:08;3.15;;;2.10;;
24357;SDS011;13668;52.154;5.580;2023-08-06T12:46:34;2.53;;;1.85;;
24357;SDS011;13668;52.154;5.580;2023-08-06T12:49:00;3.05;;;1.95;;
24357;SDS011;13668;52.154;5.580;2023-08-06T12:51:26;1.92;;;1.40;;
24357;SDS011;13668;52.154;5.580;2023-08-06T12:53:52;2.33;;;1.70;;
24357;SDS011;13668;52.154;5.580;2023-08-06T12:56:18;2.45;;;1.63;;
24357;SDS011;13668;52.154;5.580;2023-08-06T12:58:44;2.88;;;1.38;;
24357;SDS011;13668;52.154;5.580;2023-08-06T13:01:10;2.00;;;1.80;;
24357;SDS011;13668;52.154;5.580;2023-08-06T13:03:36;1.95;;;1.35;;
24357;SDS011;13668;52.154;5.580;2023-08-06T13:06:02;3.03;;;2.03;;
24357;SDS011;13668;52.154;5.580;2023-08-06T13:08:28;2.90;;;1.67;;
24357;SDS011;13668;52.154;5.580;2023-08-06T13:10:54;2.83;;;1.67;;
24357;SDS011;13668;52.154;5.580;2023-08-06T13:13:20;1.70;;;1.55;;
24357;SDS011;13668;52.154;5.580;2023-08-06T13:15:46;1.42;;;1.33;;
24357;SDS011;13668;52.154;5.580;2023-08-06T13:18:12;2.50;;;1.70;;
24357;SDS011;13668;52.154;5.580;2023-08-06T13:20:38;1.15;;;1.05;;
24357;SDS011;13668;52.154;5.580;2023-08-06T13:23:05;1.85;;;1.30;;
24357;SDS011;13668;52.154;5.580;2023-08-06T13:25:31;1.67;;;1.35;;
24357;SDS011;13668;52.154;5.580;2023-08-06T13:28:03;2.97;;;1.50;;
24357;SDS011;13668;52.154;5.580;2023-08-06T13:30:29;3.47;;;1.50;;
24357;SDS011;13668;52.154;5.580;2023-08-06T13:32:55;1.65;;;1.55;;
24357;SDS011;13668;52.154;5.580;2023-08-06T13:35:21;1.67;;;1.52;;
24357;SDS011;13668;52.154;5.580;2023-08-06T13:37:48;2.25;;;1.55;;
24357;SDS011;13668;52.154;5.580;2023-08-06T13:40:14;3.15;;;1.70;;
24357;SDS011;13668;52.154;5.580;2023-08-06T13:42:40;2.47;;;1.92;;
24357;SDS011;13668;52.154;5.580;2023-08-06T13:45:06;2.72;;;2.08;;
24357;SDS011;13668;52.154;5.580;2023-08-06T13:47:32;1.95;;;1.75;;
24357;SDS011;13668;52.154;5.580;2023-08-06T13:49:58;2.45;;;2.20;;
24357;SDS011;13668;52.154;5.580;2023-08-06T13:52:27;3.28;;;2.17;;
24357;SDS011;13668;52.154;5.580;2023-08-06T13:54:53;4.28;;;2.42;;
24357;SDS011;13668;52.154;5.580;2023-08-06T13:57:19;4.13;;;2.47;;
24357;SDS011;13668;52.154;5.580;2023-08-06T13:59:45;2.28;;;2.08;;
24357;SDS011;13668;52.154;5.580;2023-08-06T14:02:11;3.33;;;2.00;;
24357;SDS011;13668;52.154;5.580;2023-08-06T14:04:37;2.95;;;2.08;;
24357;SDS011;13668;52.154;5.580;2023-08-06T14:07:05;3.20;;;2.28;;
24357;SDS011;13668;52.154;5.580;2023-08-06T14:09:30;4.70;;;1.90;;
24357;SDS011;13668;52.154;5.580;2023-08-06T14:11:56;2.42;;;1.80;;
24357;SDS011;13668;52.154;5.580;2023-08-06T14:14:22;2.25;;;1.98;;
24357;SDS011;13668;52.154;5.580;2023-08-06T14:16:51;2.33;;;2.00;;
24357;SDS011;13668;52.154;5.580;2023-08-06T14:19:18;3.97;;;2.28;;
24357;SDS011;13668;52.154;5.580;2023-08-06T14:21:44;3.83;;;2.35;;
24357;SDS011;13668;52.154;5.580;2023-08-06T14:24:10;3.97;;;2.58;;
24357;SDS011;13668;52.154;5.580;2023-08-06T14:26:36;2.28;;;2.03;;
24357;SDS011;13668;52.154;5.580;2023-08-06T14:29:02;2.45;;;2.10;;
24357;SDS011;13668;52.154;5.580;2023-08-06T14:31:28;4.85;;;3.45;;
24357;SDS011;13668;52.154;5.580;2023-08-06T14:33:54;2.67;;;2.42;;
24357;SDS011;13668;52.154;5.580;2023-08-06T14:36:20;3.33;;;2.65;;
24357;SDS011;13668;52.154;5.580;2023-08-06T14:38:46;6.68;;;2.97;;
24357;SDS011;13668;52.154;5.580;2023-08-06T14:41:12;3.90;;;2.92;;
24357;SDS011;13668;52.154;5.580;2023-08-06T14:43:38;5.90;;;2.78;;
24357;SDS011;13668;52.154;5.580;2023-08-06T14:46:05;3.47;;;3.03;;
24357;SDS011;13668;52.154;5.580;2023-08-06T14:48:30;4.47;;;2.45;;
24357;SDS011;13668;52.154;5.580;2023-08-06T14:50:56;4.82;;;2.85;;
24357;SDS011;13668;52.154;5.580;2023-08-06T14:53:22;2.70;;;2.47;;